Friday, October 19, 2018, 10:30 PM GMT
Back to Local

CYBG, Bagotville, Que.

Location: , , Canada Lat: 48.333
Local Time: 10:30 PM GMT (22:30 GMT) Lon: -71
Time Zone: GMT Elev: 521 ft

Show me the last for .
Show Coded

Time T Td Feel RH Dir Speed Gust Alt SLP Vis Weather Sky Remarks
2018-10-19 22:00 36 32 25 86 70° 17 - 29.65 29.68 25 SCT035 OVC087 None
2018-10-19 21:00 34 30 23 86 70° 18 - 29.66 29.69 20 FEW006 BKN033 OVC085 None
2018-10-19 20:00 34 30 24 86 70° 15 - 29.71 29.74 25 BKN030 OVC080 None
2018-10-19 19:00 34 28 24 80 70° 16 - 29.74 29.77 25 OVC026 None
2018-10-19 18:00 32 28 21 86 70° 16 - 29.77 29.80 25 OVC024 None
2018-10-19 17:00 32 27 20 80 80° 14 20 29.81 29.84 20 OVC024 None
2018-10-19 16:00 30 27 20 86 70° 14 - 29.85 29.88 20 OVC024 None
2018-10-19 15:00 28 27 17 92 70° 15 - 29.88 29.91 20 OVC023 None
2018-10-19 14:22 28 25 17 86 70° 14 - 29.90 29.93 20 OVC023 None
2018-10-19 14:00 27 25 16 92 80° 12 - 29.91 29.94 20 -SN FEW006 OVC023 None
2018-10-19 13:44 27 25 16 92 80° 12 - 29.92 29.95 15 -SN FEW008 OVC026 None
2018-10-19 13:00 27 25 17 92 80° 9 - 29.95 29.98 2 -SN OVC030 None
2018-10-19 12:00 25 23 17 92 90° 7 - 29.96 29.99 2 -SN OVC030 None
2018-10-19 11:00 25 18 18 73 90° 6 - 29.98 30.01 15 -SN OVC030 None
2018-10-19 10:00 25 18 18 73 90° 6 - 30.00 30.03 15 -SN BKN030 OVC060 None
2018-10-19 09:00 25 18 19 73 120° 5 - 30.02 30.05 25 -SN BKN030 OVC140 None
2018-10-19 08:00 25 18 - 73 - Calm - 30.03 30.06 25 -SN BKN060 OVC160 None
2018-10-19 07:00 25 18 - 73 - Calm - 30.04 30.07 25 -SN OVC026 None
2018-10-19 06:00 27 14 - 58 - Calm - 30.05 30.08 25 BKN028 OVC080 None
2018-10-19 05:00 27 18 - 68 - Calm - 30.07 30.10 25 -SHSN OVC030 None
2018-10-19 04:00 27 16 21 63 270° 5 - 30.09 30.12 25 OVC035 None
2018-10-19 03:00 27 16 20 63 260° 6 - 30.10 30.13 25 OVC030 None
2018-10-19 02:00 28 16 21 58 300° 7 - 30.11 30.14 15 OVC050 None
2018-10-19 01:00 27 19 15 73 290° 14 - 30.10 30.13 6 -SHSN BKN040 None
2018-10-19 00:32 28 16 20 58 280° 8 - 30.10 30.13 25 -SHSN SCT040 BKN060 None
2018-10-19 00:00 28 16 21 58 270° 7 - 30.10 30.12 25 FEW050 None
2018-10-18 23:00 30 19 21 63 280° 12 - 30.09 30.11 25 FEW038 SCT050 BKN100 None

Support USWX by starting your Amazon purchase here.